sensor_id;sensor_type;location;lat;lon;timestamp;temperature;humidity
18733;DHT22;9495;51.210;2.934;2024-01-25T00:00:36;10.30;99.90
18733;DHT22;9495;51.210;2.934;2024-01-25T00:03:05;10.30;99.90
18733;DHT22;9495;51.210;2.934;2024-01-25T00:05:34;10.10;99.90
18733;DHT22;9495;51.210;2.934;2024-01-25T00:08:03;10.10;99.90
18733;DHT22;9495;51.210;2.934;2024-01-25T00:10:32;10.20;99.90
18733;DHT22;9495;51.210;2.934;2024-01-25T00:13:01;10.30;99.90
18733;DHT22;9495;51.210;2.934;2024-01-25T00:15:30;10.30;99.90
18733;DHT22;9495;51.210;2.934;2024-01-25T00:17:58;10.20;99.90
18733;DHT22;9495;51.210;2.934;2024-01-25T00:20:27;10.30;99.90
18733;DHT22;9495;51.210;2.934;2024-01-25T00:22:56;10.20;99.90
18733;DHT22;9495;51.210;2.934;2024-01-25T00:25:25;10.30;99.90
18733;DHT22;9495;51.210;2.934;2024-01-25T00:27:55;10.10;99.90
18733;DHT22;9495;51.210;2.934;2024-01-25T00:30:23;10.20;99.90
18733;DHT22;9495;51.210;2.934;2024-01-25T00:32:52;10.10;99.90
18733;DHT22;9495;51.210;2.934;2024-01-25T00:35:21;10.00;99.90
18733;DHT22;9495;51.210;2.934;2024-01-25T00:37:50;10.10;99.90
18733;DHT22;9495;51.210;2.934;2024-01-25T00:40:20;10.30;99.90
18733;DHT22;9495;51.210;2.934;2024-01-25T00:42:49;10.20;99.90
18733;DHT22;9495;51.210;2.934;2024-01-25T00:45:23;10.20;99.90
18733;DHT22;9495;51.210;2.934;2024-01-25T00:47:52;10.20;99.90
18733;DHT22;9495;51.210;2.934;2024-01-25T00:50:21;10.50;99.90
18733;DHT22;9495;51.210;2.934;2024-01-25T00:52:52;10.20;99.90
18733;DHT22;9495;51.210;2.934;2024-01-25T00:55:21;10.20;99.90
18733;DHT22;9495;51.210;2.934;2024-01-25T00:57:50;10.20;99.90
18733;DHT22;9495;51.210;2.934;2024-01-25T01:00:22;10.00;99.90
18733;DHT22;9495;51.210;2.934;2024-01-25T01:02:53;10.00;99.90
18733;DHT22;9495;51.210;2.934;2024-01-25T01:05:22;10.00;99.90
18733;DHT22;9495;51.210;2.934;2024-01-25T01:07:52;10.10;99.90
18733;DHT22;9495;51.210;2.934;2024-01-25T01:10:21;10.10;99.90
18733;DHT22;9495;51.210;2.934;2024-01-25T01:12:50;10.10;99.90
18733;DHT22;9495;51.210;2.934;2024-01-25T01:15:20;10.00;99.90
18733;DHT22;9495;51.210;2.934;2024-01-25T01:17:49;9.90;99.90
18733;DHT22;9495;51.210;2.934;2024-01-25T01:20:18;10.00;99.90
18733;DHT22;9495;51.210;2.934;2024-01-25T01:22:47;10.00;99.90
18733;DHT22;9495;51.210;2.934;2024-01-25T01:25:15;10.10;99.90
18733;DHT22;9495;51.210;2.934;2024-01-25T01:27:44;9.90;99.90
18733;DHT22;9495;51.210;2.934;2024-01-25T01:30:13;9.90;99.90
18733;DHT22;9495;51.210;2.934;2024-01-25T01:32:42;9.80;99.90
18733;DHT22;9495;51.210;2.934;2024-01-25T01:35:11;9.90;99.90
18733;DHT22;9495;51.210;2.934;2024-01-25T01:37:40;9.90;99.90
18733;DHT22;9495;51.210;2.934;2024-01-25T01:40:09;9.90;99.90
18733;DHT22;9495;51.210;2.934;2024-01-25T01:42:38;10.00;99.90
18733;DHT22;9495;51.210;2.934;2024-01-25T01:45:07;9.90;99.90
18733;DHT22;9495;51.210;2.934;2024-01-25T01:47:39;10.10;99.90
18733;DHT22;9495;51.210;2.934;2024-01-25T01:50:10;9.90;99.90
18733;DHT22;9495;51.210;2.934;2024-01-25T01:52:39;9.80;99.90
18733;DHT22;9495;51.210;2.934;2024-01-25T01:55:08;9.90;99.90
18733;DHT22;9495;51.210;2.934;2024-01-25T01:57:37;9.80;99.90
18733;DHT22;9495;51.210;2.934;2024-01-25T02:00:07;9.90;99.90
18733;DHT22;9495;51.210;2.934;2024-01-25T02:02:36;9.80;99.90
18733;DHT22;9495;51.210;2.934;2024-01-25T02:05:05;9.80;99.90
18733;DHT22;9495;51.210;2.934;2024-01-25T02:07:36;9.90;99.90
18733;DHT22;9495;51.210;2.934;2024-01-25T02:10:06;9.90;99.90
18733;DHT22;9495;51.210;2.934;2024-01-25T02:12:34;9.90;99.90
18733;DHT22;9495;51.210;2.934;2024-01-25T02:15:03;9.80;99.90
18733;DHT22;9495;51.210;2.934;2024-01-25T02:17:32;9.80;99.90
18733;DHT22;9495;51.210;2.934;2024-01-25T02:20:00;9.70;99.90
18733;DHT22;9495;51.210;2.934;2024-01-25T02:22:32;9.70;99.90
18733;DHT22;9495;51.210;2.934;2024-01-25T02:25:01;9.70;99.90
18733;DHT22;9495;51.210;2.934;2024-01-25T02:27:29;9.70;99.90
18733;DHT22;9495;51.210;2.934;2024-01-25T02:29:58;9.70;99.90
18733;DHT22;9495;51.210;2.934;2024-01-25T02:32:26;9.60;99.90
18733;DHT22;9495;51.210;2.934;2024-01-25T02:34:55;9.60;99.90
18733;DHT22;9495;51.210;2.934;2024-01-25T02:37:23;9.60;99.90
18733;DHT22;9495;51.210;2.934;2024-01-25T02:39:53;9.60;99.90
18733;DHT22;9495;51.210;2.934;2024-01-25T02:42:22;9.60;99.90
18733;DHT22;9495;51.210;2.934;2024-01-25T02:44:50;9.50;99.90
18733;DHT22;9495;51.210;2.934;2024-01-25T02:47:19;9.50;99.90
18733;DHT22;9495;51.210;2.934;2024-01-25T02:49:48;9.60;99.90
18733;DHT22;9495;51.210;2.934;2024-01-25T02:52:17;9.60;99.90
18733;DHT22;9495;51.210;2.934;2024-01-25T02:54:46;9.50;99.90
18733;DHT22;9495;51.210;2.934;2024-01-25T02:57:16;9.60;99.90
18733;DHT22;9495;51.210;2.934;2024-01-25T02:59:45;9.60;99.90
18733;DHT22;9495;51.210;2.934;2024-01-25T03:02:14;9.50;99.90
18733;DHT22;9495;51.210;2.934;2024-01-25T03:04:44;9.50;99.90
18733;DHT22;9495;51.210;2.934;2024-01-25T03:07:13;9.60;99.90
18733;DHT22;9495;51.210;2.934;2024-01-25T03:09:41;9.50;99.90
18733;DHT22;9495;51.210;2.934;2024-01-25T03:12:10;9.50;99.90
18733;DHT22;9495;51.210;2.934;2024-01-25T03:14:40;9.40;99.90
18733;DHT22;9495;51.210;2.934;2024-01-25T03:17:08;9.50;99.90
18733;DHT22;9495;51.210;2.934;2024-01-25T03:19:39;9.40;99.90
18733;DHT22;9495;51.210;2.934;2024-01-25T03:22:07;9.20;99.90
18733;DHT22;9495;51.210;2.934;2024-01-25T03:24:37;9.20;99.90
18733;DHT22;9495;51.210;2.934;2024-01-25T03:27:06;9.20;99.90
18733;DHT22;9495;51.210;2.934;2024-01-25T03:29:42;9.20;99.90
18733;DHT22;9495;51.210;2.934;2024-01-25T03:32:11;9.30;99.90
18733;DHT22;9495;51.210;2.934;2024-01-25T03:34:40;9.20;99.90
18733;DHT22;9495;51.210;2.934;2024-01-25T03:37:08;9.10;99.90
18733;DHT22;9495;51.210;2.934;2024-01-25T03:39:37;9.10;99.90
18733;DHT22;9495;51.210;2.934;2024-01-25T03:42:06;8.90;99.90
18733;DHT22;9495;51.210;2.934;2024-01-25T03:44:34;8.80;99.90
18733;DHT22;9495;51.210;2.934;2024-01-25T03:47:04;8.70;99.90
18733;DHT22;9495;51.210;2.934;2024-01-25T03:49:32;8.60;99.90
18733;DHT22;9495;51.210;2.934;2024-01-25T03:52:01;8.50;99.90
18733;DHT22;9495;51.210;2.934;2024-01-25T03:54:30;8.50;99.90
18733;DHT22;9495;51.210;2.934;2024-01-25T03:56:59;8.40;99.90
18733;DHT22;9495;51.210;2.934;2024-01-25T03:59:27;8.30;99.90
18733;DHT22;9495;51.210;2.934;2024-01-25T04:01:56;8.30;99.90
18733;DHT22;9495;51.210;2.934;2024-01-25T04:04:26;8.20;99.90
18733;DHT22;9495;51.210;2.934;2024-01-25T04:06:55;8.10;99.90
18733;DHT22;9495;51.210;2.934;2024-01-25T04:09:23;8.20;99.90
18733;DHT22;9495;51.210;2.934;2024-01-25T04:11:52;8.40;99.90
18733;DHT22;9495;51.210;2.934;2024-01-25T04:14:20;8.50;99.90
18733;DHT22;9495;51.210;2.934;2024-01-25T04:16:49;8.30;99.90
18733;DHT22;9495;51.210;2.934;2024-01-25T04:19:18;8.10;99.90
18733;DHT22;9495;51.210;2.934;2024-01-25T04:21:48;8.00;99.90
18733;DHT22;9495;51.210;2.934;2024-01-25T04:24:17;7.90;99.90
18733;DHT22;9495;51.210;2.934;2024-01-25T04:26:45;7.80;99.90
18733;DHT22;9495;51.210;2.934;2024-01-25T04:29:14;7.80;99.90
18733;DHT22;9495;51.210;2.934;2024-01-25T04:31:45;7.70;99.90
18733;DHT22;9495;51.210;2.934;2024-01-25T04:34:15;7.60;99.90
18733;DHT22;9495;51.210;2.934;2024-01-25T04:36:44;7.50;99.90
18733;DHT22;9495;51.210;2.934;2024-01-25T04:39:14;7.50;99.90
18733;DHT22;9495;51.210;2.934;2024-01-25T04:41:43;7.50;99.90
18733;DHT22;9495;51.210;2.934;2024-01-25T04:44:11;7.40;99.90
18733;DHT22;9495;51.210;2.934;2024-01-25T04:46:41;7.30;99.90
18733;DHT22;9495;51.210;2.934;2024-01-25T04:49:10;7.30;99.90
18733;DHT22;9495;51.210;2.934;2024-01-25T04:51:38;7.30;99.90
18733;DHT22;9495;51.210;2.934;2024-01-25T04:54:07;7.20;99.90
18733;DHT22;9495;51.210;2.934;2024-01-25T04:56:41;7.30;99.90
18733;DHT22;9495;51.210;2.934;2024-01-25T04:59:09;7.30;99.90
18733;DHT22;9495;51.210;2.934;2024-01-25T05:01:38;7.40;99.90
18733;DHT22;9495;51.210;2.934;2024-01-25T05:04:07;7.60;99.90
18733;DHT22;9495;51.210;2.934;2024-01-25T05:06:35;7.80;99.90
18733;DHT22;9495;51.210;2.934;2024-01-25T05:09:04;7.70;99.90
18733;DHT22;9495;51.210;2.934;2024-01-25T05:11:39;7.50;99.90
18733;DHT22;9495;51.210;2.934;2024-01-25T05:14:08;7.30;99.90
18733;DHT22;9495;51.210;2.934;2024-01-25T05:16:37;7.20;99.90
18733;DHT22;9495;51.210;2.934;2024-01-25T05:19:05;7.20;99.90
18733;DHT22;9495;51.210;2.934;2024-01-25T05:21:34;7.20;99.90
18733;DHT22;9495;51.210;2.934;2024-01-25T05:24:03;7.20;99.90
18733;DHT22;9495;51.210;2.934;2024-01-25T05:26:31;7.20;99.90
18733;DHT22;9495;51.210;2.934;2024-01-25T05:29:01;7.10;99.90
18733;DHT22;9495;51.210;2.934;2024-01-25T05:31:29;7.10;99.90
18733;DHT22;9495;51.210;2.934;2024-01-25T05:33:58;7.10;99.90
18733;DHT22;9495;51.210;2.934;2024-01-25T05:36:27;7.10;99.90
18733;DHT22;9495;51.210;2.934;2024-01-25T05:38:55;7.00;99.90
18733;DHT22;9495;51.210;2.934;2024-01-25T05:41:24;7.00;99.90
18733;DHT22;9495;51.210;2.934;2024-01-25T05:43:52;6.90;99.90
18733;DHT22;9495;51.210;2.934;2024-01-25T05:46:23;6.90;99.90
18733;DHT22;9495;51.210;2.934;2024-01-25T05:48:51;6.80;99.90
18733;DHT22;9495;51.210;2.934;2024-01-25T05:51:20;6.90;99.90
18733;DHT22;9495;51.210;2.934;2024-01-25T05:53:49;6.90;99.90
18733;DHT22;9495;51.210;2.934;2024-01-25T05:56:17;6.80;99.90
18733;DHT22;9495;51.210;2.934;2024-01-25T05:58:46;6.80;99.90
18733;DHT22;9495;51.210;2.934;2024-01-25T06:01:14;6.90;99.90
18733;DHT22;9495;51.210;2.934;2024-01-25T06:03:44;6.90;99.90
18733;DHT22;9495;51.210;2.934;2024-01-25T06:06:13;6.90;99.90
18733;DHT22;9495;51.210;2.934;2024-01-25T06:08:41;7.00;99.90
18733;DHT22;9495;51.210;2.934;2024-01-25T06:11:20;7.10;99.90
18733;DHT22;9495;51.210;2.934;2024-01-25T06:13:49;7.10;99.90
18733;DHT22;9495;51.210;2.934;2024-01-25T06:16:18;7.10;99.90
18733;DHT22;9495;51.210;2.934;2024-01-25T06:18:48;7.00;99.90
18733;DHT22;9495;51.210;2.934;2024-01-25T06:21:17;7.10;99.90
18733;DHT22;9495;51.210;2.934;2024-01-25T06:23:48;7.10;99.90
18733;DHT22;9495;51.210;2.934;2024-01-25T06:26:16;7.00;99.90
18733;DHT22;9495;51.210;2.934;2024-01-25T06:28:45;7.00;99.90
18733;DHT22;9495;51.210;2.934;2024-01-25T06:31:14;6.90;99.90
18733;DHT22;9495;51.210;2.934;2024-01-25T06:33:43;6.90;99.90
18733;DHT22;9495;51.210;2.934;2024-01-25T06:36:15;7.00;99.90
18733;DHT22;9495;51.210;2.934;2024-01-25T06:38:44;7.00;99.90
18733;DHT22;9495;51.210;2.934;2024-01-25T06:41:12;7.00;99.90
18733;DHT22;9495;51.210;2.934;2024-01-25T06:43:42;7.00;99.90
18733;DHT22;9495;51.210;2.934;2024-01-25T06:46:10;7.00;99.90
18733;DHT22;9495;51.210;2.934;2024-01-25T06:48:39;7.00;99.90
18733;DHT22;9495;51.210;2.934;2024-01-25T06:51:08;6.90;99.90
18733;DHT22;9495;51.210;2.934;2024-01-25T06:53:37;6.90;99.90
18733;DHT22;9495;51.210;2.934;2024-01-25T06:56:07;6.80;99.90
18733;DHT22;9495;51.210;2.934;2024-01-25T06:58:35;6.80;99.90
18733;DHT22;9495;51.210;2.934;2024-01-25T07:01:05;6.80;99.90
18733;DHT22;9495;51.210;2.934;2024-01-25T07:03:34;6.80;99.90
18733;DHT22;9495;51.210;2.934;2024-01-25T07:06:03;6.80;99.90
18733;DHT22;9495;51.210;2.934;2024-01-25T07:08:32;6.80;99.90
18733;DHT22;9495;51.210;2.934;2024-01-25T07:11:03;6.80;99.90
18733;DHT22;9495;51.210;2.934;2024-01-25T07:13:31;6.80;99.90
18733;DHT22;9495;51.210;2.934;2024-01-25T07:16:00;6.80;99.90
18733;DHT22;9495;51.210;2.934;2024-01-25T07:18:29;6.80;99.90
18733;DHT22;9495;51.210;2.934;2024-01-25T07:20:58;6.70;99.90
18733;DHT22;9495;51.210;2.934;2024-01-25T07:23:26;6.80;99.90
18733;DHT22;9495;51.210;2.934;2024-01-25T07:25:55;6.70;99.90
18733;DHT22;9495;51.210;2.934;2024-01-25T07:28:25;6.70;99.90
18733;DHT22;9495;51.210;2.934;2024-01-25T07:30:54;6.60;99.90
18733;DHT22;9495;51.210;2.934;2024-01-25T07:33:22;6.70;99.90
18733;DHT22;9495;51.210;2.934;2024-01-25T07:35:51;6.80;99.90
18733;DHT22;9495;51.210;2.934;2024-01-25T07:38:20;6.80;99.90
18733;DHT22;9495;51.210;2.934;2024-01-25T07:40:48;6.80;99.90
18733;DHT22;9495;51.210;2.934;2024-01-25T07:43:17;6.80;99.90
18733;DHT22;9495;51.210;2.934;2024-01-25T07:45:47;6.80;99.90
18733;DHT22;9495;51.210;2.934;2024-01-25T07:48:17;6.90;99.90
18733;DHT22;9495;51.210;2.934;2024-01-25T07:50:46;6.90;99.90
18733;DHT22;9495;51.210;2.934;2024-01-25T07:53:15;6.90;99.90
18733;DHT22;9495;51.210;2.934;2024-01-25T07:55:44;6.90;99.90
18733;DHT22;9495;51.210;2.934;2024-01-25T07:58:14;6.90;99.90
18733;DHT22;9495;51.210;2.934;2024-01-25T08:00:42;6.80;99.90
18733;DHT22;9495;51.210;2.934;2024-01-25T08:03:14;7.00;99.90
18733;DHT22;9495;51.210;2.934;2024-01-25T08:05:44;7.00;99.90
18733;DHT22;9495;51.210;2.934;2024-01-25T08:08:17;7.00;99.90
18733;DHT22;9495;51.210;2.934;2024-01-25T08:10:46;7.00;99.90
18733;DHT22;9495;51.210;2.934;2024-01-25T08:13:15;7.00;99.90
18733;DHT22;9495;51.210;2.934;2024-01-25T08:15:43;7.10;99.90
18733;DHT22;9495;51.210;2.934;2024-01-25T08:18:13;7.10;99.90
18733;DHT22;9495;51.210;2.934;2024-01-25T08:20:42;7.10;99.90
18733;DHT22;9495;51.210;2.934;2024-01-25T08:23:11;7.10;99.90
18733;DHT22;9495;51.210;2.934;2024-01-25T08:25:41;7.20;99.90
18733;DHT22;9495;51.210;2.934;2024-01-25T08:28:10;7.20;99.90
18733;DHT22;9495;51.210;2.934;2024-01-25T08:30:39;7.30;99.90
18733;DHT22;9495;51.210;2.934;2024-01-25T08:33:07;7.30;99.90
18733;DHT22;9495;51.210;2.934;2024-01-25T08:35:37;7.30;99.90
18733;DHT22;9495;51.210;2.934;2024-01-25T08:38:08;7.30;99.90
18733;DHT22;9495;51.210;2.934;2024-01-25T08:40:36;7.40;99.90
18733;DHT22;9495;51.210;2.934;2024-01-25T08:43:05;7.40;99.90
18733;DHT22;9495;51.210;2.934;2024-01-25T08:45:34;7.40;99.90
18733;DHT22;9495;51.210;2.934;2024-01-25T08:48:05;7.50;99.90
18733;DHT22;9495;51.210;2.934;2024-01-25T08:50:37;7.60;99.90
18733;DHT22;9495;51.210;2.934;2024-01-25T08:53:06;7.60;99.90
18733;DHT22;9495;51.210;2.934;2024-01-25T08:55:34;7.70;99.90
18733;DHT22;9495;51.210;2.934;2024-01-25T08:58:03;7.80;99.90
18733;DHT22;9495;51.210;2.934;2024-01-25T09:00:31;8.20;99.90
18733;DHT22;9495;51.210;2.934;2024-01-25T09:03:00;8.30;99.90
18733;DHT22;9495;51.210;2.934;2024-01-25T09:05:29;8.20;99.90
18733;DHT22;9495;51.210;2.934;2024-01-25T09:08:00;8.10;99.90
18733;DHT22;9495;51.210;2.934;2024-01-25T09:10:28;8.00;99.90
18733;DHT22;9495;51.210;2.934;2024-01-25T09:12:57;8.10;99.90
18733;DHT22;9495;51.210;2.934;2024-01-25T09:15:26;8.20;99.90
18733;DHT22;9495;51.210;2.934;2024-01-25T09:17:55;8.10;99.90
18733;DHT22;9495;51.210;2.934;2024-01-25T09:20:23;8.30;99.90
18733;DHT22;9495;51.210;2.934;2024-01-25T09:22:52;8.30;99.90
18733;DHT22;9495;51.210;2.934;2024-01-25T09:25:23;8.30;99.90
18733;DHT22;9495;51.210;2.934;2024-01-25T09:27:52;8.30;99.90
18733;DHT22;9495;51.210;2.934;2024-01-25T09:30:22;8.30;99.90
18733;DHT22;9495;51.210;2.934;2024-01-25T09:32:50;8.30;99.90
18733;DHT22;9495;51.210;2.934;2024-01-25T09:35:19;8.40;99.90
18733;DHT22;9495;51.210;2.934;2024-01-25T09:37:48;8.40;99.90
18733;DHT22;9495;51.210;2.934;2024-01-25T09:40:20;8.50;99.90
18733;DHT22;9495;51.210;2.934;2024-01-25T09:42:52;8.40;99.90
18733;DHT22;9495;51.210;2.934;2024-01-25T09:45:21;8.40;99.90
18733;DHT22;9495;51.210;2.934;2024-01-25T09:47:50;8.60;99.90
18733;DHT22;9495;51.210;2.934;2024-01-25T09:50:19;8.50;99.90
18733;DHT22;9495;51.210;2.934;2024-01-25T09:52:54;8.60;99.90
18733;DHT22;9495;51.210;2.934;2024-01-25T09:55:25;8.60;99.90
18733;DHT22;9495;51.210;2.934;2024-01-25T09:57:55;8.70;99.90
18733;DHT22;9495;51.210;2.934;2024-01-25T10:00:24;9.00;99.90
18733;DHT22;9495;51.210;2.934;2024-01-25T10:02:54;8.90;99.90
18733;DHT22;9495;51.210;2.934;2024-01-25T10:05:22;8.90;99.90
18733;DHT22;9495;51.210;2.934;2024-01-25T10:07:51;9.10;99.90
18733;DHT22;9495;51.210;2.934;2024-01-25T10:10:20;9.00;99.90
18733;DHT22;9495;51.210;2.934;2024-01-25T10:12:48;9.00;99.90
18733;DHT22;9495;51.210;2.934;2024-01-25T10:15:18;8.90;99.90
18733;DHT22;9495;51.210;2.934;2024-01-25T10:17:47;9.00;99.90
18733;DHT22;9495;51.210;2.934;2024-01-25T10:20:35;9.00;99.90
18733;DHT22;9495;51.210;2.934;2024-01-25T10:23:05;9.10;99.90
18733;DHT22;9495;51.210;2.934;2024-01-25T10:25:34;9.80;99.90
18733;DHT22;9495;51.210;2.934;2024-01-25T10:28:05;9.50;99.90
18733;DHT22;9495;51.210;2.934;2024-01-25T10:30:36;9.50;99.90
18733;DHT22;9495;51.210;2.934;2024-01-25T10:33:05;9.50;99.90
18733;DHT22;9495;51.210;2.934;2024-01-25T10:35:36;9.60;99.90
18733;DHT22;9495;51.210;2.934;2024-01-25T10:38:05;9.70;99.90
18733;DHT22;9495;51.210;2.934;2024-01-25T10:40:34;9.60;99.90
18733;DHT22;9495;51.210;2.934;2024-01-25T10:43:03;9.90;99.90
18733;DHT22;9495;51.210;2.934;2024-01-25T10:45:32;9.70;99.90
18733;DHT22;9495;51.210;2.934;2024-01-25T10:48:02;9.70;99.90
18733;DHT22;9495;51.210;2.934;2024-01-25T10:50:31;9.90;99.90
18733;DHT22;9495;51.210;2.934;2024-01-25T10:53:01;9.90;99.90
18733;DHT22;9495;51.210;2.934;2024-01-25T10:55:30;9.70;99.90
18733;DHT22;9495;51.210;2.934;2024-01-25T10:57:59;9.70;99.90
18733;DHT22;9495;51.210;2.934;2024-01-25T11:00:31;9.80;99.90
18733;DHT22;9495;51.210;2.934;2024-01-25T11:03:04;9.70;99.90
18733;DHT22;9495;51.210;2.934;2024-01-25T11:05:34;9.70;99.90
18733;DHT22;9495;51.210;2.934;2024-01-25T11:08:03;9.90;99.90
18733;DHT22;9495;51.210;2.934;2024-01-25T11:10:37;9.80;99.90
18733;DHT22;9495;51.210;2.934;2024-01-25T11:13:14;9.80;99.90
18733;DHT22;9495;51.210;2.934;2024-01-25T11:15:43;9.80;99.90
18733;DHT22;9495;51.210;2.934;2024-01-25T11:18:13;9.90;99.90
18733;DHT22;9495;51.210;2.934;2024-01-25T11:20:42;9.90;99.90
18733;DHT22;9495;51.210;2.934;2024-01-25T11:23:15;10.10;99.90
18733;DHT22;9495;51.210;2.934;2024-01-25T11:25:45;10.20;99.90
18733;DHT22;9495;51.210;2.934;2024-01-25T11:28:15;10.20;99.90
18733;DHT22;9495;51.210;2.934;2024-01-25T11:30:44;10.20;99.90
18733;DHT22;9495;51.210;2.934;2024-01-25T11:33:16;10.40;99.90
18733;DHT22;9495;51.210;2.934;2024-01-25T11:35:54;10.80;99.90
18733;DHT22;9495;51.210;2.934;2024-01-25T11:38:23;10.60;99.90
18733;DHT22;9495;51.210;2.934;2024-01-25T11:40:51;10.70;99.90
18733;DHT22;9495;51.210;2.934;2024-01-25T11:43:20;10.70;99.90
18733;DHT22;9495;51.210;2.934;2024-01-25T11:45:49;10.60;99.90
18733;DHT22;9495;51.210;2.934;2024-01-25T11:48:19;10.70;99.90
18733;DHT22;9495;51.210;2.934;2024-01-25T11:50:48;10.60;99.90
18733;DHT22;9495;51.210;2.934;2024-01-25T11:53:17;11.10;99.90
18733;DHT22;9495;51.210;2.934;2024-01-25T11:55:46;10.80;99.90
18733;DHT22;9495;51.210;2.934;2024-01-25T11:58:15;11.00;99.90
18733;DHT22;9495;51.210;2.934;2024-01-25T12:00:43;11.10;99.90
18733;DHT22;9495;51.210;2.934;2024-01-25T12:03:12;11.30;99.90
18733;DHT22;9495;51.210;2.934;2024-01-25T12:05:42;11.40;99.90
18733;DHT22;9495;51.210;2.934;2024-01-25T12:08:13;11.60;99.90
18733;DHT22;9495;51.210;2.934;2024-01-25T12:10:42;11.70;99.90
18733;DHT22;9495;51.210;2.934;2024-01-25T12:13:11;11.70;99.90
18733;DHT22;9495;51.210;2.934;2024-01-25T12:15:41;11.90;99.90
18733;DHT22;9495;51.210;2.934;2024-01-25T12:18:10;12.30;99.90
18733;DHT22;9495;51.210;2.934;2024-01-25T12:20:39;12.40;99.90
18733;DHT22;9495;51.210;2.934;2024-01-25T12:23:09;12.10;99.90
18733;DHT22;9495;51.210;2.934;2024-01-25T12:25:39;11.90;99.90
18733;DHT22;9495;51.210;2.934;2024-01-25T12:28:10;11.80;99.90
18733;DHT22;9495;51.210;2.934;2024-01-25T12:30:38;11.80;99.90
18733;DHT22;9495;51.210;2.934;2024-01-25T12:33:07;11.60;99.90
18733;DHT22;9495;51.210;2.934;2024-01-25T12:35:36;11.60;99.90
18733;DHT22;9495;51.210;2.934;2024-01-25T12:38:06;11.50;99.90
18733;DHT22;9495;51.210;2.934;2024-01-25T12:40:36;11.40;99.90
18733;DHT22;9495;51.210;2.934;2024-01-25T12:43:04;11.30;99.90
18733;DHT22;9495;51.210;2.934;2024-01-25T12:45:33;11.50;99.90
18733;DHT22;9495;51.210;2.934;2024-01-25T12:48:02;11.50;99.90
18733;DHT22;9495;51.210;2.934;2024-01-25T12:50:31;11.40;99.90
18733;DHT22;9495;51.210;2.934;2024-01-25T12:53:01;11.50;99.90
18733;DHT22;9495;51.210;2.934;2024-01-25T12:55:30;11.50;99.90
18733;DHT22;9495;51.210;2.934;2024-01-25T12:58:00;11.60;99.90
18733;DHT22;9495;51.210;2.934;2024-01-25T13:00:30;11.70;99.90
18733;DHT22;9495;51.210;2.934;2024-01-25T13:03:00;12.00;99.90
18733;DHT22;9495;51.210;2.934;2024-01-25T13:05:30;12.20;99.90
18733;DHT22;9495;51.210;2.934;2024-01-25T13:08:01;12.20;99.90
18733;DHT22;9495;51.210;2.934;2024-01-25T13:10:30;12.30;99.90
18733;DHT22;9495;51.210;2.934;2024-01-25T13:13:00;12.20;99.90
18733;DHT22;9495;51.210;2.934;2024-01-25T13:15:29;12.30;99.90
18733;DHT22;9495;51.210;2.934;2024-01-25T13:17:57;12.20;99.90
18733;DHT22;9495;51.210;2.934;2024-01-25T13:20:28;12.40;99.90
18733;DHT22;9495;51.210;2.934;2024-01-25T13:22:56;12.40;99.90
18733;DHT22;9495;51.210;2.934;2024-01-25T13:25:25;12.50;99.90
18733;DHT22;9495;51.210;2.934;2024-01-25T13:27:54;12.50;99.90
18733;DHT22;9495;51.210;2.934;2024-01-25T13:30:24;12.60;99.90
18733;DHT22;9495;51.210;2.934;2024-01-25T13:32:53;12.90;99.90
18733;DHT22;9495;51.210;2.934;2024-01-25T13:35:21;12.80;99.90
18733;DHT22;9495;51.210;2.934;2024-01-25T13:37:50;12.70;99.90
18733;DHT22;9495;51.210;2.934;2024-01-25T13:40:18;12.70;99.90
18733;DHT22;9495;51.210;2.934;2024-01-25T13:42:48;12.60;99.90
18733;DHT22;9495;51.210;2.934;2024-01-25T13:45:17;12.60;99.90
18733;DHT22;9495;51.210;2.934;2024-01-25T13:47:46;12.60;99.90
18733;DHT22;9495;51.210;2.934;2024-01-25T13:50:15;12.70;99.90
18733;DHT22;9495;51.210;2.934;2024-01-25T13:52:44;12.90;99.90
18733;DHT22;9495;51.210;2.934;2024-01-25T13:55:12;12.70;99.90
18733;DHT22;9495;51.210;2.934;2024-01-25T13:57:41;12.60;99.90
18733;DHT22;9495;51.210;2.934;2024-01-25T14:00:10;12.60;99.90
18733;DHT22;9495;51.210;2.934;2024-01-25T14:02:40;12.80;99.90
18733;DHT22;9495;51.210;2.934;2024-01-25T14:05:13;12.90;99.90
18733;DHT22;9495;51.210;2.934;2024-01-25T14:07:42;12.90;99.90
18733;DHT22;9495;51.210;2.934;2024-01-25T14:10:10;12.90;99.90
18733;DHT22;9495;51.210;2.934;2024-01-25T14:12:39;13.10;99.90
18733;DHT22;9495;51.210;2.934;2024-01-25T14:15:08;13.00;99.90
18733;DHT22;9495;51.210;2.934;2024-01-25T14:17:37;13.10;99.90
18733;DHT22;9495;51.210;2.934;2024-01-25T14:20:06;13.30;99.90
18733;DHT22;9495;51.210;2.934;2024-01-25T14:22:37;13.10;99.90
18733;DHT22;9495;51.210;2.934;2024-01-25T14:25:06;13.20;99.90
18733;DHT22;9495;51.210;2.934;2024-01-25T14:27:35;13.00;99.90
18733;DHT22;9495;51.210;2.934;2024-01-25T14:30:05;13.20;99.90
18733;DHT22;9495;51.210;2.934;2024-01-25T14:32:34;13.20;99.90
18733;DHT22;9495;51.210;2.934;2024-01-25T14:35:04;13.20;99.90
18733;DHT22;9495;51.210;2.934;2024-01-25T14:37:33;13.20;99.90
18733;DHT22;9495;51.210;2.934;2024-01-25T14:40:03;13.20;99.90
18733;DHT22;9495;51.210;2.934;2024-01-25T14:42:51;13.30;99.90
18733;DHT22;9495;51.210;2.934;2024-01-25T14:45:20;13.60;99.90
18733;DHT22;9495;51.210;2.934;2024-01-25T14:47:49;13.50;99.90
18733;DHT22;9495;51.210;2.934;2024-01-25T14:50:18;13.30;99.90
18733;DHT22;9495;51.210;2.934;2024-01-25T14:52:47;13.30;99.90
18733;DHT22;9495;51.210;2.934;2024-01-25T14:55:17;13.30;99.90
18733;DHT22;9495;51.210;2.934;2024-01-25T14:57:46;13.30;99.90
18733;DHT22;9495;51.210;2.934;2024-01-25T15:00:15;13.30;99.90
18733;DHT22;9495;51.210;2.934;2024-01-25T15:02:47;13.40;99.90
18733;DHT22;9495;51.210;2.934;2024-01-25T15:05:15;13.40;99.90
18733;DHT22;9495;51.210;2.934;2024-01-25T15:07:44;13.40;99.90
18733;DHT22;9495;51.210;2.934;2024-01-25T15:10:13;13.50;99.90
18733;DHT22;9495;51.210;2.934;2024-01-25T15:12:43;13.40;99.90
18733;DHT22;9495;51.210;2.934;2024-01-25T15:15:12;13.30;99.90
18733;DHT22;9495;51.210;2.934;2024-01-25T15:17:40;13.30;99.90
18733;DHT22;9495;51.210;2.934;2024-01-25T15:20:11;13.30;99.90
18733;DHT22;9495;51.210;2.934;2024-01-25T15:22:39;13.40;99.90
18733;DHT22;9495;51.210;2.934;2024-01-25T15:25:08;13.30;99.90
18733;DHT22;9495;51.210;2.934;2024-01-25T15:27:36;13.50;99.90
18733;DHT22;9495;51.210;2.934;2024-01-25T15:30:08;13.50;99.90
18733;DHT22;9495;51.210;2.934;2024-01-25T15:32:37;13.50;99.90
18733;DHT22;9495;51.210;2.934;2024-01-25T15:35:07;13.60;99.90
18733;DHT22;9495;51.210;2.934;2024-01-25T15:37:36;13.60;99.90
18733;DHT22;9495;51.210;2.934;2024-01-25T15:40:05;13.60;99.90
18733;DHT22;9495;51.210;2.934;2024-01-25T15:42:38;13.50;99.90
18733;DHT22;9495;51.210;2.934;2024-01-25T15:45:09;13.40;99.90
18733;DHT22;9495;51.210;2.934;2024-01-25T15:47:38;13.20;99.90
18733;DHT22;9495;51.210;2.934;2024-01-25T15:50:09;13.20;99.90
18733;DHT22;9495;51.210;2.934;2024-01-25T15:52:37;13.40;99.90
18733;DHT22;9495;51.210;2.934;2024-01-25T15:55:07;13.60;99.90
18733;DHT22;9495;51.210;2.934;2024-01-25T15:57:35;13.70;99.90
18733;DHT22;9495;51.210;2.934;2024-01-25T16:00:05;13.70;99.90
18733;DHT22;9495;51.210;2.934;2024-01-25T16:02:35;13.80;99.90
18733;DHT22;9495;51.210;2.934;2024-01-25T16:05:04;13.80;99.90
18733;DHT22;9495;51.210;2.934;2024-01-25T16:07:33;13.90;99.90